sensor_id;sensor_type;location;lat;lon;timestamp;P1;durP1;ratioP1;P2;durP2;ratioP2
6105;SDS011;3083;51.508;7.966;2023-06-19T00:02:12;10.80;;;8.27;;
6105;SDS011;3083;51.508;7.966;2023-06-19T00:04:39;11.97;;;8.00;;
6105;SDS011;3083;51.508;7.966;2023-06-19T00:07:05;11.93;;;9.00;;
6105;SDS011;3083;51.508;7.966;2023-06-19T00:09:32;12.50;;;8.40;;
6105;SDS011;3083;51.508;7.966;2023-06-19T00:11:59;9.97;;;7.60;;
6105;SDS011;3083;51.508;7.966;2023-06-19T00:14:26;14.33;;;8.07;;
6105;SDS011;3083;51.508;7.966;2023-06-19T00:16:54;12.87;;;9.27;;
6105;SDS011;3083;51.508;7.966;2023-06-19T00:19:22;11.93;;;9.10;;
6105;SDS011;3083;51.508;7.966;2023-06-19T00:21:49;12.37;;;8.57;;
6105;SDS011;3083;51.508;7.966;2023-06-19T00:24:16;11.10;;;8.97;;
6105;SDS011;3083;51.508;7.966;2023-06-19T00:26:42;9.97;;;6.90;;
6105;SDS011;3083;51.508;7.966;2023-06-19T00:29:09;11.33;;;8.07;;
6105;SDS011;3083;51.508;7.966;2023-06-19T00:31:36;12.50;;;7.70;;
6105;SDS011;3083;51.508;7.966;2023-06-19T00:34:04;9.57;;;7.43;;
6105;SDS011;3083;51.508;7.966;2023-06-19T00:36:31;11.97;;;7.97;;
6105;SDS011;3083;51.508;7.966;2023-06-19T00:39:05;11.50;;;7.97;;
6105;SDS011;3083;51.508;7.966;2023-06-19T00:41:32;9.97;;;7.43;;
6105;SDS011;3083;51.508;7.966;2023-06-19T00:44:01;11.03;;;7.57;;
6105;SDS011;3083;51.508;7.966;2023-06-19T00:46:28;14.83;;;8.47;;
6105;SDS011;3083;51.508;7.966;2023-06-19T00:48:55;13.63;;;8.70;;
6105;SDS011;3083;51.508;7.966;2023-06-19T00:51:23;12.97;;;8.67;;
6105;SDS011;3083;51.508;7.966;2023-06-19T00:53:50;11.33;;;8.27;;
6105;SDS011;3083;51.508;7.966;2023-06-19T00:56:18;12.10;;;8.10;;
6105;SDS011;3083;51.508;7.966;2023-06-19T00:58:45;11.23;;;8.30;;
6105;SDS011;3083;51.508;7.966;2023-06-19T01:01:12;10.80;;;7.77;;
6105;SDS011;3083;51.508;7.966;2023-06-19T01:03:39;10.40;;;8.13;;
6105;SDS011;3083;51.508;7.966;2023-06-19T01:06:07;11.87;;;9.00;;
6105;SDS011;3083;51.508;7.966;2023-06-19T01:08:46;14.63;;;8.90;;
6105;SDS011;3083;51.508;7.966;2023-06-19T01:11:20;12.63;;;9.60;;
6105;SDS011;3083;51.508;7.966;2023-06-19T01:13:53;11.63;;;8.40;;
6105;SDS011;3083;51.508;7.966;2023-06-19T01:16:23;13.13;;;8.53;;
6105;SDS011;3083;51.508;7.966;2023-06-19T01:18:50;12.60;;;8.57;;
6105;SDS011;3083;51.508;7.966;2023-06-19T01:21:18;12.33;;;8.37;;
6105;SDS011;3083;51.508;7.966;2023-06-19T01:23:46;12.30;;;8.83;;
6105;SDS011;3083;51.508;7.966;2023-06-19T01:26:13;14.70;;;9.50;;
6105;SDS011;3083;51.508;7.966;2023-06-19T01:28:42;14.37;;;9.50;;
6105;SDS011;3083;51.508;7.966;2023-06-19T01:31:11;12.43;;;9.10;;
6105;SDS011;3083;51.508;7.966;2023-06-19T01:33:41;12.97;;;9.43;;
6105;SDS011;3083;51.508;7.966;2023-06-19T01:36:10;12.40;;;8.90;;
6105;SDS011;3083;51.508;7.966;2023-06-19T01:38:37;11.23;;;9.00;;
6105;SDS011;3083;51.508;7.966;2023-06-19T01:41:07;12.17;;;9.20;;
6105;SDS011;3083;51.508;7.966;2023-06-19T01:43:35;12.70;;;9.40;;
6105;SDS011;3083;51.508;7.966;2023-06-19T01:46:03;13.80;;;9.70;;
6105;SDS011;3083;51.508;7.966;2023-06-19T01:48:30;12.70;;;9.73;;
6105;SDS011;3083;51.508;7.966;2023-06-19T01:50:57;13.17;;;9.90;;
6105;SDS011;3083;51.508;7.966;2023-06-19T01:53:24;13.43;;;9.70;;
6105;SDS011;3083;51.508;7.966;2023-06-19T01:55:51;12.40;;;9.50;;
6105;SDS011;3083;51.508;7.966;2023-06-19T01:58:19;13.83;;;9.53;;
6105;SDS011;3083;51.508;7.966;2023-06-19T02:00:46;11.90;;;9.50;;
6105;SDS011;3083;51.508;7.966;2023-06-19T02:03:13;12.10;;;9.63;;
6105;SDS011;3083;51.508;7.966;2023-06-19T02:05:40;13.63;;;9.90;;
6105;SDS011;3083;51.508;7.966;2023-06-19T02:08:07;12.90;;;9.30;;
6105;SDS011;3083;51.508;7.966;2023-06-19T02:10:33;14.40;;;9.70;;
6105;SDS011;3083;51.508;7.966;2023-06-19T02:13:00;12.60;;;9.63;;
6105;SDS011;3083;51.508;7.966;2023-06-19T02:15:28;12.47;;;9.73;;
6105;SDS011;3083;51.508;7.966;2023-06-19T02:17:56;12.80;;;9.83;;
6105;SDS011;3083;51.508;7.966;2023-06-19T02:20:22;13.40;;;10.27;;
6105;SDS011;3083;51.508;7.966;2023-06-19T02:22:50;12.70;;;10.37;;
6105;SDS011;3083;51.508;7.966;2023-06-19T02:25:17;13.40;;;9.87;;
6105;SDS011;3083;51.508;7.966;2023-06-19T02:27:44;12.57;;;9.67;;
6105;SDS011;3083;51.508;7.966;2023-06-19T02:30:12;12.77;;;10.03;;
6105;SDS011;3083;51.508;7.966;2023-06-19T02:32:40;11.33;;;9.10;;
6105;SDS011;3083;51.508;7.966;2023-06-19T02:35:09;14.00;;;10.47;;
6105;SDS011;3083;51.508;7.966;2023-06-19T02:37:36;14.50;;;10.73;;
6105;SDS011;3083;51.508;7.966;2023-06-19T02:40:03;15.30;;;10.60;;
6105;SDS011;3083;51.508;7.966;2023-06-19T02:42:31;12.90;;;9.97;;
6105;SDS011;3083;51.508;7.966;2023-06-19T02:44:58;13.33;;;9.90;;
6105;SDS011;3083;51.508;7.966;2023-06-19T02:47:28;11.50;;;9.10;;
6105;SDS011;3083;51.508;7.966;2023-06-19T02:49:57;10.40;;;8.90;;
6105;SDS011;3083;51.508;7.966;2023-06-19T02:52:24;11.13;;;9.00;;
6105;SDS011;3083;51.508;7.966;2023-06-19T02:54:51;12.40;;;9.30;;
6105;SDS011;3083;51.508;7.966;2023-06-19T02:57:18;12.20;;;9.70;;
6105;SDS011;3083;51.508;7.966;2023-06-19T02:59:45;12.37;;;9.50;;
6105;SDS011;3083;51.508;7.966;2023-06-19T03:02:12;11.70;;;9.30;;
6105;SDS011;3083;51.508;7.966;2023-06-19T03:04:39;12.77;;;10.00;;
6105;SDS011;3083;51.508;7.966;2023-06-19T03:07:08;13.30;;;10.07;;
6105;SDS011;3083;51.508;7.966;2023-06-19T03:09:35;11.93;;;9.10;;
6105;SDS011;3083;51.508;7.966;2023-06-19T03:12:02;13.27;;;9.23;;
6105;SDS011;3083;51.508;7.966;2023-06-19T03:14:30;13.77;;;10.47;;
6105;SDS011;3083;51.508;7.966;2023-06-19T03:16:57;14.60;;;8.97;;
6105;SDS011;3083;51.508;7.966;2023-06-19T03:19:23;11.47;;;8.90;;
6105;SDS011;3083;51.508;7.966;2023-06-19T03:21:50;11.77;;;8.90;;
6105;SDS011;3083;51.508;7.966;2023-06-19T03:24:18;13.17;;;9.03;;
6105;SDS011;3083;51.508;7.966;2023-06-19T03:26:45;11.37;;;8.40;;
6105;SDS011;3083;51.508;7.966;2023-06-19T03:29:12;11.50;;;8.13;;
6105;SDS011;3083;51.508;7.966;2023-06-19T03:31:39;12.43;;;9.50;;
6105;SDS011;3083;51.508;7.966;2023-06-19T03:34:06;12.07;;;9.00;;
6105;SDS011;3083;51.508;7.966;2023-06-19T03:36:33;14.30;;;9.63;;
6105;SDS011;3083;51.508;7.966;2023-06-19T03:39:00;11.93;;;9.13;;
6105;SDS011;3083;51.508;7.966;2023-06-19T03:41:28;13.10;;;8.63;;
6105;SDS011;3083;51.508;7.966;2023-06-19T03:43:55;12.87;;;9.93;;
6105;SDS011;3083;51.508;7.966;2023-06-19T03:46:22;12.50;;;8.83;;
6105;SDS011;3083;51.508;7.966;2023-06-19T03:48:49;11.97;;;8.30;;
6105;SDS011;3083;51.508;7.966;2023-06-19T03:51:15;11.50;;;8.30;;
6105;SDS011;3083;51.508;7.966;2023-06-19T03:53:42;11.10;;;8.67;;
6105;SDS011;3083;51.508;7.966;2023-06-19T03:56:09;11.80;;;9.17;;
6105;SDS011;3083;51.508;7.966;2023-06-19T03:58:37;11.43;;;8.90;;
6105;SDS011;3083;51.508;7.966;2023-06-19T04:01:04;10.90;;;8.53;;
6105;SDS011;3083;51.508;7.966;2023-06-19T04:03:31;11.97;;;8.27;;
6105;SDS011;3083;51.508;7.966;2023-06-19T04:05:58;11.17;;;8.40;;
6105;SDS011;3083;51.508;7.966;2023-06-19T04:08:25;13.80;;;7.83;;
6105;SDS011;3083;51.508;7.966;2023-06-19T04:10:52;10.60;;;8.10;;
6105;SDS011;3083;51.508;7.966;2023-06-19T04:13:18;11.10;;;8.47;;
6105;SDS011;3083;51.508;7.966;2023-06-19T04:15:47;11.50;;;8.10;;
6105;SDS011;3083;51.508;7.966;2023-06-19T04:18:13;14.50;;;9.07;;
6105;SDS011;3083;51.508;7.966;2023-06-19T04:20:40;10.33;;;8.40;;
6105;SDS011;3083;51.508;7.966;2023-06-19T04:23:07;11.03;;;8.50;;
6105;SDS011;3083;51.508;7.966;2023-06-19T04:25:34;14.30;;;8.83;;
6105;SDS011;3083;51.508;7.966;2023-06-19T04:28:01;11.00;;;8.33;;
6105;SDS011;3083;51.508;7.966;2023-06-19T04:30:28;18.53;;;9.67;;
6105;SDS011;3083;51.508;7.966;2023-06-19T04:32:57;10.50;;;8.30;;
6105;SDS011;3083;51.508;7.966;2023-06-19T04:35:25;11.80;;;8.17;;
6105;SDS011;3083;51.508;7.966;2023-06-19T04:37:52;10.20;;;8.43;;
6105;SDS011;3083;51.508;7.966;2023-06-19T04:40:19;12.73;;;9.07;;
6105;SDS011;3083;51.508;7.966;2023-06-19T04:42:47;10.33;;;8.20;;
6105;SDS011;3083;51.508;7.966;2023-06-19T04:45:13;12.53;;;8.43;;
6105;SDS011;3083;51.508;7.966;2023-06-19T04:47:40;10.80;;;7.97;;
6105;SDS011;3083;51.508;7.966;2023-06-19T04:50:10;12.07;;;8.70;;
6105;SDS011;3083;51.508;7.966;2023-06-19T04:52:37;11.63;;;8.50;;
6105;SDS011;3083;51.508;7.966;2023-06-19T04:55:05;10.33;;;8.03;;
6105;SDS011;3083;51.508;7.966;2023-06-19T04:57:34;12.00;;;9.30;;
6105;SDS011;3083;51.508;7.966;2023-06-19T05:00:01;12.33;;;8.97;;
6105;SDS011;3083;51.508;7.966;2023-06-19T05:02:30;10.70;;;7.93;;
6105;SDS011;3083;51.508;7.966;2023-06-19T05:04:57;12.40;;;7.63;;
6105;SDS011;3083;51.508;7.966;2023-06-19T05:07:28;10.97;;;7.27;;
6105;SDS011;3083;51.508;7.966;2023-06-19T05:09:56;9.97;;;5.97;;
6105;SDS011;3083;51.508;7.966;2023-06-19T05:12:22;8.93;;;5.20;;
6105;SDS011;3083;51.508;7.966;2023-06-19T05:14:49;7.40;;;5.10;;
6105;SDS011;3083;51.508;7.966;2023-06-19T05:17:16;7.60;;;5.07;;
6105;SDS011;3083;51.508;7.966;2023-06-19T05:19:43;7.60;;;4.80;;
6105;SDS011;3083;51.508;7.966;2023-06-19T05:22:10;8.07;;;5.30;;
6105;SDS011;3083;51.508;7.966;2023-06-19T05:24:39;8.17;;;5.30;;
6105;SDS011;3083;51.508;7.966;2023-06-19T05:27:05;8.87;;;4.50;;
6105;SDS011;3083;51.508;7.966;2023-06-19T05:29:32;8.13;;;4.80;;
6105;SDS011;3083;51.508;7.966;2023-06-19T05:32:00;7.33;;;5.17;;
6105;SDS011;3083;51.508;7.966;2023-06-19T05:34:26;8.00;;;5.03;;
6105;SDS011;3083;51.508;7.966;2023-06-19T05:36:54;6.73;;;4.90;;
6105;SDS011;3083;51.508;7.966;2023-06-19T05:39:21;7.77;;;5.00;;
6105;SDS011;3083;51.508;7.966;2023-06-19T05:41:49;7.63;;;5.07;;
6105;SDS011;3083;51.508;7.966;2023-06-19T05:44:16;8.00;;;5.00;;
6105;SDS011;3083;51.508;7.966;2023-06-19T05:46:44;7.57;;;5.10;;
6105;SDS011;3083;51.508;7.966;2023-06-19T05:49:11;10.10;;;5.60;;
6105;SDS011;3083;51.508;7.966;2023-06-19T05:51:38;8.10;;;5.67;;
6105;SDS011;3083;51.508;7.966;2023-06-19T05:54:05;8.50;;;5.83;;
6105;SDS011;3083;51.508;7.966;2023-06-19T05:56:32;8.60;;;5.30;;
6105;SDS011;3083;51.508;7.966;2023-06-19T05:59:00;13.30;;;5.50;;
6105;SDS011;3083;51.508;7.966;2023-06-19T06:01:28;9.77;;;5.83;;
6105;SDS011;3083;51.508;7.966;2023-06-19T06:03:55;8.20;;;5.43;;
6105;SDS011;3083;51.508;7.966;2023-06-19T06:06:22;8.60;;;5.90;;
6105;SDS011;3083;51.508;7.966;2023-06-19T06:08:50;13.43;;;5.37;;
6105;SDS011;3083;51.508;7.966;2023-06-19T06:11:17;8.57;;;5.30;;
6105;SDS011;3083;51.508;7.966;2023-06-19T06:13:44;11.33;;;5.60;;
6105;SDS011;3083;51.508;7.966;2023-06-19T06:16:12;7.83;;;5.93;;
6105;SDS011;3083;51.508;7.966;2023-06-19T06:18:39;6.57;;;4.57;;
6105;SDS011;3083;51.508;7.966;2023-06-19T06:21:06;8.50;;;5.20;;
6105;SDS011;3083;51.508;7.966;2023-06-19T06:23:34;7.40;;;5.00;;
6105;SDS011;3083;51.508;7.966;2023-06-19T06:26:01;10.27;;;5.17;;
6105;SDS011;3083;51.508;7.966;2023-06-19T06:28:28;6.83;;;5.03;;
6105;SDS011;3083;51.508;7.966;2023-06-19T06:30:56;6.70;;;4.17;;
6105;SDS011;3083;51.508;7.966;2023-06-19T06:33:24;8.43;;;4.27;;
6105;SDS011;3083;51.508;7.966;2023-06-19T06:35:54;9.40;;;4.40;;
6105;SDS011;3083;51.508;7.966;2023-06-19T06:38:21;6.10;;;4.57;;
6105;SDS011;3083;51.508;7.966;2023-06-19T06:40:48;6.80;;;4.40;;
6105;SDS011;3083;51.508;7.966;2023-06-19T06:43:15;6.33;;;4.33;;
6105;SDS011;3083;51.508;7.966;2023-06-19T06:45:42;7.20;;;4.30;;
6105;SDS011;3083;51.508;7.966;2023-06-19T06:48:09;6.13;;;4.27;;
6105;SDS011;3083;51.508;7.966;2023-06-19T06:50:37;6.50;;;4.43;;
6105;SDS011;3083;51.508;7.966;2023-06-19T06:53:04;7.53;;;4.50;;
6105;SDS011;3083;51.508;7.966;2023-06-19T06:55:31;6.90;;;4.23;;
6105;SDS011;3083;51.508;7.966;2023-06-19T06:57:57;7.03;;;4.20;;
6105;SDS011;3083;51.508;7.966;2023-06-19T07:00:25;5.70;;;3.93;;
6105;SDS011;3083;51.508;7.966;2023-06-19T07:02:51;5.93;;;4.30;;
6105;SDS011;3083;51.508;7.966;2023-06-19T07:05:19;5.33;;;3.70;;
6105;SDS011;3083;51.508;7.966;2023-06-19T07:07:47;5.57;;;3.60;;
6105;SDS011;3083;51.508;7.966;2023-06-19T07:10:14;6.73;;;3.60;;
6105;SDS011;3083;51.508;7.966;2023-06-19T07:12:44;6.47;;;3.93;;
6105;SDS011;3083;51.508;7.966;2023-06-19T07:15:11;5.17;;;3.73;;
6105;SDS011;3083;51.508;7.966;2023-06-19T07:17:38;6.50;;;3.73;;
6105;SDS011;3083;51.508;7.966;2023-06-19T07:20:05;7.17;;;4.00;;
6105;SDS011;3083;51.508;7.966;2023-06-19T07:22:33;5.13;;;3.73;;
6105;SDS011;3083;51.508;7.966;2023-06-19T07:25:01;7.23;;;3.70;;
6105;SDS011;3083;51.508;7.966;2023-06-19T07:27:29;5.47;;;3.70;;
6105;SDS011;3083;51.508;7.966;2023-06-19T07:29:55;6.80;;;3.30;;
6105;SDS011;3083;51.508;7.966;2023-06-19T07:32:22;5.40;;;3.37;;
6105;SDS011;3083;51.508;7.966;2023-06-19T07:34:49;4.70;;;3.20;;
6105;SDS011;3083;51.508;7.966;2023-06-19T07:37:16;5.40;;;3.10;;
6105;SDS011;3083;51.508;7.966;2023-06-19T07:39:43;5.37;;;3.30;;
6105;SDS011;3083;51.508;7.966;2023-06-19T07:42:12;4.60;;;3.00;;
6105;SDS011;3083;51.508;7.966;2023-06-19T07:44:40;5.90;;;2.80;;
6105;SDS011;3083;51.508;7.966;2023-06-19T07:47:07;4.30;;;2.57;;
6105;SDS011;3083;51.508;7.966;2023-06-19T07:49:34;4.43;;;2.90;;
6105;SDS011;3083;51.508;7.966;2023-06-19T07:52:02;7.60;;;3.43;;
6105;SDS011;3083;51.508;7.966;2023-06-19T07:54:29;6.50;;;3.20;;
6105;SDS011;3083;51.508;7.966;2023-06-19T07:56:56;4.60;;;3.20;;
6105;SDS011;3083;51.508;7.966;2023-06-19T07:59:24;5.13;;;3.40;;
6105;SDS011;3083;51.508;7.966;2023-06-19T08:01:51;8.23;;;3.77;;
6105;SDS011;3083;51.508;7.966;2023-06-19T08:04:18;5.60;;;2.80;;
6105;SDS011;3083;51.508;7.966;2023-06-19T08:06:45;4.23;;;2.80;;
6105;SDS011;3083;51.508;7.966;2023-06-19T08:09:12;4.60;;;2.90;;
6105;SDS011;3083;51.508;7.966;2023-06-19T08:11:39;5.30;;;3.40;;
6105;SDS011;3083;51.508;7.966;2023-06-19T08:14:05;4.20;;;3.13;;
6105;SDS011;3083;51.508;7.966;2023-06-19T08:16:34;5.27;;;3.50;;
6105;SDS011;3083;51.508;7.966;2023-06-19T08:19:01;4.83;;;3.23;;
6105;SDS011;3083;51.508;7.966;2023-06-19T08:21:27;5.27;;;3.47;;
6105;SDS011;3083;51.508;7.966;2023-06-19T08:23:55;4.20;;;3.00;;
6105;SDS011;3083;51.508;7.966;2023-06-19T08:26:22;4.33;;;3.00;;
6105;SDS011;3083;51.508;7.966;2023-06-19T08:28:49;4.63;;;3.10;;
6105;SDS011;3083;51.508;7.966;2023-06-19T08:31:16;4.40;;;2.70;;
6105;SDS011;3083;51.508;7.966;2023-06-19T08:33:44;5.13;;;3.20;;
6105;SDS011;3083;51.508;7.966;2023-06-19T08:36:14;4.10;;;2.80;;
6105;SDS011;3083;51.508;7.966;2023-06-19T08:38:41;5.87;;;3.27;;
6105;SDS011;3083;51.508;7.966;2023-06-19T08:41:08;4.03;;;2.60;;
6105;SDS011;3083;51.508;7.966;2023-06-19T08:43:35;4.23;;;2.90;;
6105;SDS011;3083;51.508;7.966;2023-06-19T08:46:06;4.90;;;2.80;;
6105;SDS011;3083;51.508;7.966;2023-06-19T08:48:37;4.67;;;3.27;;
6105;SDS011;3083;51.508;7.966;2023-06-19T08:51:06;6.33;;;3.60;;
6105;SDS011;3083;51.508;7.966;2023-06-19T08:53:33;4.63;;;3.30;;
6105;SDS011;3083;51.508;7.966;2023-06-19T08:56:02;5.30;;;3.30;;
6105;SDS011;3083;51.508;7.966;2023-06-19T08:58:29;5.40;;;3.07;;
6105;SDS011;3083;51.508;7.966;2023-06-19T09:00:57;5.70;;;3.20;;
6105;SDS011;3083;51.508;7.966;2023-06-19T09:03:24;4.63;;;3.30;;
6105;SDS011;3083;51.508;7.966;2023-06-19T09:05:51;4.83;;;3.40;;
6105;SDS011;3083;51.508;7.966;2023-06-19T09:08:20;5.33;;;3.20;;
6105;SDS011;3083;51.508;7.966;2023-06-19T09:10:57;6.03;;;3.20;;
6105;SDS011;3083;51.508;7.966;2023-06-19T09:13:24;5.30;;;3.23;;
6105;SDS011;3083;51.508;7.966;2023-06-19T09:15:57;5.00;;;3.30;;
6105;SDS011;3083;51.508;7.966;2023-06-19T09:18:27;4.60;;;2.80;;
6105;SDS011;3083;51.508;7.966;2023-06-19T09:20:56;4.70;;;2.90;;
6105;SDS011;3083;51.508;7.966;2023-06-19T09:23:25;4.47;;;2.73;;
6105;SDS011;3083;51.508;7.966;2023-06-19T09:25:52;7.03;;;3.27;;
6105;SDS011;3083;51.508;7.966;2023-06-19T09:28:22;4.20;;;2.60;;
6105;SDS011;3083;51.508;7.966;2023-06-19T09:30:55;4.03;;;2.77;;
6105;SDS011;3083;51.508;7.966;2023-06-19T09:33:24;5.80;;;2.90;;
6105;SDS011;3083;51.508;7.966;2023-06-19T09:35:52;4.33;;;2.77;;
6105;SDS011;3083;51.508;7.966;2023-06-19T09:38:21;5.00;;;3.23;;
6105;SDS011;3083;51.508;7.966;2023-06-19T09:40:51;5.97;;;3.17;;
6105;SDS011;3083;51.508;7.966;2023-06-19T09:43:19;4.27;;;2.80;;
6105;SDS011;3083;51.508;7.966;2023-06-19T09:45:49;5.07;;;2.90;;
6105;SDS011;3083;51.508;7.966;2023-06-19T09:48:18;5.77;;;3.03;;
6105;SDS011;3083;51.508;7.966;2023-06-19T09:50:49;4.73;;;2.90;;
6105;SDS011;3083;51.508;7.966;2023-06-19T09:53:17;4.33;;;3.10;;
6105;SDS011;3083;51.508;7.966;2023-06-19T09:55:46;4.40;;;3.20;;
6105;SDS011;3083;51.508;7.966;2023-06-19T09:58:16;3.97;;;2.70;;
6105;SDS011;3083;51.508;7.966;2023-06-19T10:00:44;4.97;;;3.03;;
6105;SDS011;3083;51.508;7.966;2023-06-19T10:03:12;4.90;;;3.17;;
6105;SDS011;3083;51.508;7.966;2023-06-19T10:05:41;4.07;;;2.87;;
6105;SDS011;3083;51.508;7.966;2023-06-19T10:08:09;3.90;;;2.97;;
6105;SDS011;3083;51.508;7.966;2023-06-19T10:10:36;4.20;;;3.33;;
6105;SDS011;3083;51.508;7.966;2023-06-19T10:13:12;4.43;;;3.30;;
6105;SDS011;3083;51.508;7.966;2023-06-19T10:15:42;4.70;;;3.23;;
6105;SDS011;3083;51.508;7.966;2023-06-19T10:18:13;4.60;;;3.13;;
6105;SDS011;3083;51.508;7.966;2023-06-19T10:20:42;4.60;;;3.63;;
6105;SDS011;3083;51.508;7.966;2023-06-19T10:23:10;5.30;;;3.43;;
6105;SDS011;3083;51.508;7.966;2023-06-19T10:25:39;4.37;;;3.67;;
6105;SDS011;3083;51.508;7.966;2023-06-19T10:28:17;8.20;;;3.40;;
6105;SDS011;3083;51.508;7.966;2023-06-19T10:30:46;5.50;;;3.70;;
6105;SDS011;3083;51.508;7.966;2023-06-19T10:33:19;5.50;;;4.07;;
6105;SDS011;3083;51.508;7.966;2023-06-19T10:35:46;5.57;;;3.90;;
6105;SDS011;3083;51.508;7.966;2023-06-19T10:38:14;4.53;;;3.77;;
6105;SDS011;3083;51.508;7.966;2023-06-19T10:40:42;6.23;;;4.53;;
6105;SDS011;3083;51.508;7.966;2023-06-19T10:43:09;6.97;;;4.53;;
6105;SDS011;3083;51.508;7.966;2023-06-19T10:45:36;5.23;;;4.63;;
6105;SDS011;3083;51.508;7.966;2023-06-19T10:48:05;6.80;;;5.00;;
6105;SDS011;3083;51.508;7.966;2023-06-19T10:50:35;5.37;;;4.23;;
6105;SDS011;3083;51.508;7.966;2023-06-19T10:53:06;5.50;;;4.67;;
6105;SDS011;3083;51.508;7.966;2023-06-19T10:55:33;7.87;;;5.33;;
6105;SDS011;3083;51.508;7.966;2023-06-19T10:58:00;5.27;;;4.10;;
6105;SDS011;3083;51.508;7.966;2023-06-19T11:00:27;6.20;;;5.60;;
6105;SDS011;3083;51.508;7.966;2023-06-19T11:02:55;7.07;;;4.80;;
6105;SDS011;3083;51.508;7.966;2023-06-19T11:05:24;6.07;;;5.47;;
6105;SDS011;3083;51.508;7.966;2023-06-19T11:07:54;6.40;;;5.47;;
6105;SDS011;3083;51.508;7.966;2023-06-19T11:10:22;7.13;;;5.83;;
6105;SDS011;3083;51.508;7.966;2023-06-19T11:12:50;6.53;;;5.47;;
6105;SDS011;3083;51.508;7.966;2023-06-19T11:15:19;7.53;;;5.60;;
6105;SDS011;3083;51.508;7.966;2023-06-19T11:17:46;5.57;;;4.97;;
6105;SDS011;3083;51.508;7.966;2023-06-19T11:20:13;6.70;;;6.00;;
6105;SDS011;3083;51.508;7.966;2023-06-19T11:22:42;8.30;;;6.30;;
6105;SDS011;3083;51.508;7.966;2023-06-19T11:25:09;7.00;;;5.50;;
6105;SDS011;3083;51.508;7.966;2023-06-19T11:27:37;7.20;;;6.00;;
6105;SDS011;3083;51.508;7.966;2023-06-19T11:30:05;7.13;;;6.30;;
6105;SDS011;3083;51.508;7.966;2023-06-19T11:32:36;7.20;;;5.50;;
6105;SDS011;3083;51.508;7.966;2023-06-19T11:35:07;6.67;;;5.80;;
6105;SDS011;3083;51.508;7.966;2023-06-19T11:37:36;6.50;;;5.73;;
6105;SDS011;3083;51.508;7.966;2023-06-19T11:40:07;7.03;;;5.90;;
6105;SDS011;3083;51.508;7.966;2023-06-19T11:42:47;7.00;;;5.43;;
6105;SDS011;3083;51.508;7.966;2023-06-19T11:45:15;7.10;;;6.00;;
6105;SDS011;3083;51.508;7.966;2023-06-19T11:47:43;8.93;;;5.80;;
6105;SDS011;3083;51.508;7.966;2023-06-19T11:50:11;6.40;;;5.40;;
6105;SDS011;3083;51.508;7.966;2023-06-19T11:52:38;7.67;;;5.73;;
6105;SDS011;3083;51.508;7.966;2023-06-19T11:55:08;7.63;;;5.57;;
6105;SDS011;3083;51.508;7.966;2023-06-19T11:57:35;8.23;;;5.33;;
6105;SDS011;3083;51.508;7.966;2023-06-19T12:00:02;5.83;;;5.00;;
6105;SDS011;3083;51.508;7.966;2023-06-19T12:02:32;9.47;;;5.10;;
6105;SDS011;3083;51.508;7.966;2023-06-19T12:04:59;7.07;;;5.10;;
6105;SDS011;3083;51.508;7.966;2023-06-19T12:07:26;5.87;;;5.00;;
6105;SDS011;3083;51.508;7.966;2023-06-19T12:09:53;5.77;;;5.17;;
6105;SDS011;3083;51.508;7.966;2023-06-19T12:12:21;8.43;;;5.80;;
6105;SDS011;3083;51.508;7.966;2023-06-19T12:14:48;6.57;;;5.00;;
6105;SDS011;3083;51.508;7.966;2023-06-19T12:17:15;8.30;;;5.20;;
6105;SDS011;3083;51.508;7.966;2023-06-19T12:19:42;5.93;;;5.33;;
6105;SDS011;3083;51.508;7.966;2023-06-19T12:22:08;6.78;;;4.97;;
6105;SDS011;3083;51.508;7.966;2023-06-19T12:24:35;6.20;;;5.28;;
6105;SDS011;3083;51.508;7.966;2023-06-19T12:27:02;6.40;;;5.30;;
6105;SDS011;3083;51.508;7.966;2023-06-19T12:29:31;6.32;;;5.65;;
6105;SDS011;3083;51.508;7.966;2023-06-19T12:31:59;6.32;;;5.63;;
6105;SDS011;3083;51.508;7.966;2023-06-19T12:34:27;6.60;;;5.40;;
6105;SDS011;3083;51.508;7.966;2023-06-19T12:36:54;6.05;;;5.00;;
6105;SDS011;3083;51.508;7.966;2023-06-19T12:39:22;6.90;;;5.43;;
6105;SDS011;3083;51.508;7.966;2023-06-19T12:41:49;6.80;;;5.07;;
6105;SDS011;3083;51.508;7.966;2023-06-19T12:44:16;5.90;;;5.25;;
6105;SDS011;3083;51.508;7.966;2023-06-19T12:46:45;5.75;;;4.97;;
6105;SDS011;3083;51.508;7.966;2023-06-19T12:49:12;7.20;;;6.10;;
6105;SDS011;3083;51.508;7.966;2023-06-19T12:51:38;6.35;;;5.50;;
6105;SDS011;3083;51.508;7.966;2023-06-19T12:54:05;6.22;;;5.63;;
6105;SDS011;3083;51.508;7.966;2023-06-19T12:56:32;6.75;;;5.50;;
6105;SDS011;3083;51.508;7.966;2023-06-19T12:58:59;7.75;;;6.32;;
6105;SDS011;3083;51.508;7.966;2023-06-19T13:01:26;9.00;;;5.90;;
6105;SDS011;3083;51.508;7.966;2023-06-19T13:03:54;6.68;;;5.53;;
6105;SDS011;3083;51.508;7.966;2023-06-19T13:06:21;7.43;;;6.25;;
6105;SDS011;3083;51.508;7.966;2023-06-19T13:08:48;8.35;;;6.03;;
6105;SDS011;3083;51.508;7.966;2023-06-19T13:11:15;7.07;;;6.15;;
6105;SDS011;3083;51.508;7.966;2023-06-19T13:13:42;8.73;;;6.38;;
6105;SDS011;3083;51.508;7.966;2023-06-19T13:16:09;8.63;;;6.38;;
6105;SDS011;3083;51.508;7.966;2023-06-19T13:18:36;7.72;;;6.93;;
6105;SDS011;3083;51.508;7.966;2023-06-19T13:21:04;6.70;;;5.80;;
6105;SDS011;3083;51.508;7.966;2023-06-19T13:23:31;8.98;;;5.75;;
6105;SDS011;3083;51.508;7.966;2023-06-19T13:25:58;7.40;;;5.65;;
6105;SDS011;3083;51.508;7.966;2023-06-19T13:28:25;7.10;;;6.40;;
6105;SDS011;3083;51.508;7.966;2023-06-19T13:30:52;6.70;;;6.00;;
6105;SDS011;3083;51.508;7.966;2023-06-19T13:33:19;7.85;;;5.40;;
6105;SDS011;3083;51.508;7.966;2023-06-19T13:35:46;8.90;;;6.10;;
6105;SDS011;3083;51.508;7.966;2023-06-19T13:38:14;8.63;;;5.97;;
6105;SDS011;3083;51.508;7.966;2023-06-19T13:40:42;6.82;;;5.72;;
6105;SDS011;3083;51.508;7.966;2023-06-19T13:43:09;7.70;;;6.50;;
6105;SDS011;3083;51.508;7.966;2023-06-19T13:45:36;7.93;;;6.07;;
6105;SDS011;3083;51.508;7.966;2023-06-19T13:48:03;7.72;;;6.10;;
6105;SDS011;3083;51.508;7.966;2023-06-19T13:50:31;9.32;;;5.75;;
6105;SDS011;3083;51.508;7.966;2023-06-19T13:52:58;7.13;;;6.00;;
6105;SDS011;3083;51.508;7.966;2023-06-19T13:55:27;8.73;;;6.07;;
6105;SDS011;3083;51.508;7.966;2023-06-19T13:57:54;8.50;;;6.00;;
6105;SDS011;3083;51.508;7.966;2023-06-19T14:00:20;9.67;;;6.60;;
6105;SDS011;3083;51.508;7.966;2023-06-19T14:02:47;11.10;;;6.33;;
6105;SDS011;3083;51.508;7.966;2023-06-19T14:05:15;8.10;;;6.00;;
6105;SDS011;3083;51.508;7.966;2023-06-19T14:07:42;7.95;;;5.88;;
6105;SDS011;3083;51.508;7.966;2023-06-19T14:10:09;7.90;;;5.80;;
6105;SDS011;3083;51.508;7.966;2023-06-19T14:12:37;6.47;;;5.40;;
6105;SDS011;3083;51.508;7.966;2023-06-19T14:15:05;10.57;;;6.13;;
6105;SDS011;3083;51.508;7.966;2023-06-19T14:17:33;6.53;;;5.82;;
6105;SDS011;3083;51.508;7.966;2023-06-19T14:20:00;6.75;;;5.25;;
6105;SDS011;3083;51.508;7.966;2023-06-19T14:22:27;7.78;;;6.45;;
6105;SDS011;3083;51.508;7.966;2023-06-19T14:24:54;7.07;;;5.43;;
6105;SDS011;3083;51.508;7.966;2023-06-19T14:27:24;7.70;;;5.80;;
6105;SDS011;3083;51.508;7.966;2023-06-19T14:29:53;8.48;;;5.80;;
6105;SDS011;3083;51.508;7.966;2023-06-19T14:32:20;9.23;;;6.47;;
6105;SDS011;3083;51.508;7.966;2023-06-19T14:34:47;6.37;;;5.40;;
6105;SDS011;3083;51.508;7.966;2023-06-19T14:37:14;8.07;;;5.97;;
6105;SDS011;3083;51.508;7.966;2023-06-19T14:39:41;7.97;;;5.50;;
6105;SDS011;3083;51.508;7.966;2023-06-19T14:42:08;7.87;;;5.57;;
6105;SDS011;3083;51.508;7.966;2023-06-19T14:44:36;6.50;;;5.57;;
6105;SDS011;3083;51.508;7.966;2023-06-19T14:47:04;7.40;;;5.90;;
6105;SDS011;3083;51.508;7.966;2023-06-19T14:49:32;10.10;;;5.70;;
6105;SDS011;3083;51.508;7.966;2023-06-19T14:51:58;6.53;;;5.30;;
6105;SDS011;3083;51.508;7.966;2023-06-19T14:54:25;9.43;;;5.40;;
6105;SDS011;3083;51.508;7.966;2023-06-19T14:56:52;7.60;;;5.37;;
6105;SDS011;3083;51.508;7.966;2023-06-19T14:59:19;6.10;;;4.83;;
6105;SDS011;3083;51.508;7.966;2023-06-19T15:01:46;7.23;;;4.70;;
6105;SDS011;3083;51.508;7.966;2023-06-19T15:04:14;6.67;;;5.10;;
6105;SDS011;3083;51.508;7.966;2023-06-19T15:06:41;8.53;;;5.30;;
6105;SDS011;3083;51.508;7.966;2023-06-19T15:09:08;7.73;;;5.20;;
6105;SDS011;3083;51.508;7.966;2023-06-19T15:11:35;9.53;;;4.50;;
6105;SDS011;3083;51.508;7.966;2023-06-19T15:14:02;9.10;;;5.50;;